Time;durP1;ratioP1;P1;durP2;ratioP2;P2;SDS_P1;SDS_P2;PMS_P1;PMS_P2;Temp;Humidity;BMP_temperature;BMP_pressure;BME280_temperature;BME280_humidity;BME280_pressure;Samples;Min_cycle;Max_cycle;Signal;HPM_P1;HPM_P2
2022/03/26 00:00:25;;;;;;;19.73;11.10;;;;;;;7.33;34.29;96283.78;5105470;28;20039;-70
2022/03/26 00:02:51;;;;;;;21.50;11.98;;;;;;;7.09;35.26;96280.47;5105288;28;20046;-70
2022/03/26 00:05:17;;;;;;;23.83;12.25;;;;;;;6.91;35.64;96288.25;5105721;28;20634;-69
2022/03/26 00:07:43;;;;;;;23.55;12.27;;;;;;;6.90;35.52;96294.56;5106207;28;20107;-69
2022/03/26 00:10:08;;;;;;;21.15;12.45;;;;;;;6.62;36.77;96299.59;5105904;28;20028;-69
2022/03/26 00:12:34;;;;;;;18.27;12.18;;;;;;;6.42;37.27;96296.78;5106062;28;20028;-70
2022/03/26 00:14:59;;;;;;;21.42;11.60;;;;;;;6.30;38.02;96306.69;5106009;28;20046;-70
2022/03/26 00:17:25;;;;;;;24.23;11.60;;;;;;;6.24;38.18;96301.88;5106096;28;20167;-69
2022/03/26 00:19:51;;;;;;;24.85;12.00;;;;;;;6.19;38.37;96299.56;5106410;28;20028;-71
2022/03/26 00:22:17;;;;;;;26.50;12.25;;;;;;;6.11;37.98;96294.06;5105695;28;20030;-71
2022/03/26 00:24:42;;;;;;;21.27;11.38;;;;;;;5.98;39.33;96294.19;5106322;28;20020;-69
2022/03/26 00:27:07;;;;;;;20.25;11.18;;;;;;;5.99;39.30;96302.06;5105312;28;20027;-69
2022/03/26 00:29:33;;;;;;;20.77;11.57;;;;;;;5.98;38.69;96296.84;5105853;28;20035;-69
2022/03/26 00:31:58;;;;;;;18.48;10.20;;;;;;;6.02;39.38;96296.47;5105378;28;20030;-68
2022/03/26 00:34:24;;;;;;;23.35;10.60;;;;;;;6.17;37.90;96294.38;5105541;28;20412;-69
2022/03/26 00:36:49;;;;;;;18.30;9.85;;;;;;;6.20;38.35;96293.28;5105665;28;20478;-69
2022/03/26 00:39:14;;;;;;;21.73;10.32;;;;;;;6.19;38.49;96296.91;5105130;28;20551;-70
2022/03/26 00:41:40;;;;;;;18.38;10.07;;;;;;;6.20;38.23;96289.75;5106352;28;20020;-69
2022/03/26 00:44:05;;;;;;;16.20;10.10;;;;;;;6.14;38.40;96302.63;5104710;28;20032;-68
2022/03/26 00:46:31;;;;;;;19.60;10.63;;;;;;;6.12;38.20;96303.72;5106096;28;20042;-69
2022/03/26 00:48:56;;;;;;;21.38;11.05;;;;;;;5.94;39.12;96299.78;5104697;28;20430;-70
2022/03/26 00:51:22;;;;;;;19.63;11.68;;;;;;;5.73;39.55;96310.34;5104270;28;20383;-70
2022/03/26 00:53:47;;;;;;;28.52;11.77;;;;;;;5.58;39.19;96315.09;5105285;28;20069;-70
2022/03/26 00:56:13;;;;;;;24.58;11.77;;;;;;;5.45;39.16;96317.91;5105322;28;20024;-70
2022/03/26 00:58:39;;;;;;;19.25;11.65;;;;;;;5.21;41.29;96310.91;5105779;28;20035;-68
2022/03/26 01:01:04;;;;;;;22.58;11.50;;;;;;;5.02;41.31;96322.16;5104478;28;20531;-71
2022/03/26 01:03:30;;;;;;;22.27;12.77;;;;;;;5.15;40.49;96319.38;5105753;28;20069;-70
2022/03/26 01:05:55;;;;;;;31.10;12.07;;;;;;;5.24;40.89;96317.81;5104409;28;20031;-70
2022/03/26 01:08:20;;;;;;;25.80;12.02;;;;;;;5.24;41.59;96321.31;5104074;28;20031;-68
2022/03/26 01:10:46;;;;;;;24.23;11.70;;;;;;;5.18;41.17;96322.66;5104989;28;20030;-70
2022/03/26 01:13:12;;;;;;;25.90;11.80;;;;;;;5.12;41.27;96327.59;5104988;28;20019;-69
2022/03/26 01:15:37;;;;;;;23.08;11.00;;;;;;;5.11;40.78;96339.22;5105358;28;20517;-69
2022/03/26 01:18:03;;;;;;;21.63;11.70;;;;;;;4.94;41.06;96339.56;5104541;28;20128;-70
2022/03/26 01:20:28;;;;;;;19.40;10.73;;;;;;;4.96;40.92;96339.44;5105874;28;20023;-69
2022/03/26 01:22:54;;;;;;;23.35;12.07;;;;;;;4.80;41.17;96340.63;5104352;28;20032;-71
2022/03/26 01:25:20;;;;;;;29.02;11.65;;;;;;;4.75;40.84;96341.94;5105721;28;20450;-70
2022/03/26 01:27:45;;;;;;;20.25;11.48;;;;;;;4.72;41.22;96350.16;5104433;28;20054;-70
2022/03/26 01:30:11;;;;;;;33.08;13.88;;;;;;;4.75;42.00;96348.13;5105012;28;20024;-69
2022/03/26 01:32:36;;;;;;;29.88;14.85;;;;;;;4.70;42.39;96350.28;5104829;28;20473;-70
2022/03/26 01:35:02;;;;;;;27.05;14.32;;;;;;;4.72;41.45;96343.03;5104912;28;20027;-70
2022/03/26 01:37:27;;;;;;;23.40;12.27;;;;;;;4.80;41.13;96342.44;5105693;28;20024;-69
2022/03/26 01:39:54;;;;;;;26.67;11.55;;;;;;;4.80;41.19;96351.25;5104646;28;20107;-69
2022/03/26 01:42:19;;;;;;;19.75;11.32;;;;;;;4.77;40.68;96346.16;5105442;28;20371;-69
2022/03/26 01:44:45;;;;;;;22.58;10.90;;;;;;;4.71;40.64;96346.66;5104374;28;20016;-71
2022/03/26 01:47:10;;;;;;;18.45;10.25;;;;;;;4.58;41.01;96347.59;5104888;28;20038;-69
2022/03/26 01:49:36;;;;;;;28.00;11.07;;;;;;;4.40;42.04;96349.81;5104408;28;20035;-70
2022/03/26 01:52:02;;;;;;;20.05;11.43;;;;;;;4.32;41.63;96352.25;5104838;28;20016;-70
2022/03/26 01:54:27;;;;;;;24.48;11.68;;;;;;;4.20;41.44;96351.34;5104935;28;20031;-70
2022/03/26 01:56:54;;;;;;;20.27;10.55;;;;;;;4.12;42.86;96349.25;5104735;28;20034;-70
2022/03/26 01:59:19;;;;;;;18.50;10.15;;;;;;;4.08;43.30;96347.78;5105132;28;20032;-69
2022/03/26 02:01:45;;;;;;;20.85;10.85;;;;;;;4.01;43.46;96354.50;5103836;28;20039;-69
2022/03/26 02:04:11;;;;;;;18.45;10.80;;;;;;;3.95;43.97;96351.34;5105055;28;20061;-69
2022/03/26 02:06:37;;;;;;;21.40;10.10;;;;;;;3.99;43.69;96356.41;5104355;28;20410;-70
2022/03/26 02:09:04;;;;;;;18.52;10.32;;;;;;;3.98;43.63;96357.38;5104643;28;20046;-68
2022/03/26 02:11:34;;;;;;;19.15;9.63;;;;;;;4.05;43.95;96362.13;5103014;28;20027;-71
2022/03/26 02:14:01;;;;;;;20.67;10.85;;;;;;;3.95;43.71;96361.09;5104689;28;20028;-69
2022/03/26 02:16:26;;;;;;;18.50;10.73;;;;;;;3.93;43.60;96358.56;5106159;28;20502;-70
2022/03/26 02:18:52;;;;;;;16.15;9.90;;;;;;;3.89;44.66;96357.09;5107804;28;20038;-70
2022/03/26 02:21:18;;;;;;;18.23;10.75;;;;;;;3.90;43.74;96365.91;5108908;28;20042;-70
2022/03/26 02:23:44;;;;;;;16.80;10.63;;;;;;;3.85;44.78;96368.06;5107648;28;20457;-70
2022/03/26 02:26:14;;;;;;;19.30;10.88;;;;;;;3.79;45.10;96366.72;5108407;28;20035;-70
2022/03/26 02:28:41;;;;;;;18.10;10.82;;;;;;;3.82;43.87;96369.97;5106500;28;20035;-71
2022/03/26 02:31:06;;;;;;;31.67;11.38;;;;;;;3.89;43.60;96366.84;5108065;28;20513;-70
2022/03/26 02:33:32;;;;;;;20.95;10.25;;;;;;;3.80;43.89;96374.56;5107997;28;20030;-70
2022/03/26 02:35:58;;;;;;;16.02;10.18;;;;;;;3.67;44.34;96373.75;5107876;28;20031;-70
2022/03/26 02:38:24;;;;;;;20.13;10.38;;;;;;;3.51;44.79;96374.84;5108281;28;20077;-68
2022/03/26 02:40:51;;;;;;;21.15;10.55;;;;;;;3.43;44.85;96361.28;5107540;28;20027;-70
2022/03/26 02:43:16;;;;;;;18.35;9.55;;;;;;;3.38;44.47;96374.00;5108116;28;20027;-70
2022/03/26 02:45:45;;;;;;;20.45;10.90;;;;;;;3.34;44.91;96374.22;5107799;28;20096;-71
2022/03/26 02:48:12;;;;;;;20.15;10.07;;;;;;;3.32;45.09;96365.53;5107708;28;20043;-71
2022/03/26 02:50:47;;;;;;;15.52;10.10;;;;;;;3.32;44.70;96367.34;5107408;28;20039;-71
2022/03/26 02:53:13;;;;;;;18.67;9.63;;;;;;;3.30;44.94;96367.47;5107436;28;20034;-71
2022/03/26 02:55:38;;;;;;;18.08;10.00;;;;;;;3.31;44.44;96374.44;5108139;28;20028;-70
2022/03/26 02:58:05;;;;;;;19.30;9.55;;;;;;;3.37;44.83;96373.16;5107004;28;20050;-69
2022/03/26 03:00:31;;;;;;;16.17;10.10;;;;;;;3.31;45.10;96377.09;5107848;28;20489;-70
2022/03/26 03:02:56;;;;;;;17.48;9.57;;;;;;;3.11;45.61;96378.53;5106948;28;20143;-71
2022/03/26 03:05:22;;;;;;;24.05;11.32;;;;;;;3.14;45.71;96372.13;5106192;28;20020;-70
2022/03/26 03:07:48;;;;;;;20.83;10.38;;;;;;;3.07;46.09;96375.22;5107160;28;20028;-70
2022/03/26 03:10:15;;;;;;;19.58;9.50;;;;;;;3.06;46.26;96378.81;5107411;28;20481;-70
2022/03/26 03:12:43;;;;;;;21.42;9.65;;;;;;;3.16;45.40;96380.84;5107698;28;20051;-69
2022/03/26 03:15:10;;;;;;;23.33;10.00;;;;;;;3.21;45.30;96384.84;5106843;28;20080;-69
2022/03/26 03:17:38;;;;;;;23.17;10.45;;;;;;;3.19;45.28;96388.59;5107426;27;20047;-69
2022/03/26 03:20:05;;;;;;;19.05;10.15;;;;;;;3.15;45.55;96387.94;5106495;28;20513;-70
2022/03/26 03:22:31;;;;;;;21.35;10.57;;;;;;;3.08;46.26;96390.16;5107118;28;20035;-69
2022/03/26 03:24:57;;;;;;;17.02;9.52;;;;;;;3.02;46.77;96387.94;5106982;28;20022;-71
2022/03/26 03:27:23;;;;;;;20.15;10.45;;;;;;;2.95;45.77;96382.22;5106609;28;20757;-69
2022/03/26 03:29:49;;;;;;;20.60;9.80;;;;;;;2.87;46.26;96386.34;5107007;28;20070;-70
2022/03/26 03:32:14;;;;;;;18.10;9.98;;;;;;;2.77;46.06;96388.78;5106956;28;20036;-70
2022/03/26 03:34:40;;;;;;;17.10;10.80;;;;;;;2.74;45.58;96389.00;5105977;28;20024;-70
2022/03/26 03:37:06;;;;;;;23.77;10.68;;;;;;;2.77;46.03;96386.13;5106148;28;20125;-69
2022/03/26 03:39:31;;;;;;;18.77;10.45;;;;;;;2.76;46.19;96393.22;5107033;28;20023;-70
2022/03/26 03:41:57;;;;;;;15.30;8.98;;;;;;;2.68;46.57;96392.91;5106315;28;20375;-70
2022/03/26 03:44:22;;;;;;;17.35;9.60;;;;;;;2.59;46.97;96395.25;5106859;28;20019;-70
2022/03/26 03:46:48;;;;;;;18.83;10.48;;;;;;;2.58;46.91;96390.88;5106376;28;20028;-70
2022/03/26 03:49:13;;;;;;;18.38;9.95;;;;;;;2.52;46.61;96393.06;5106327;28;20046;-71
2022/03/26 03:51:39;;;;;;;22.45;10.07;;;;;;;2.46;46.93;96402.31;5107025;28;20020;-69
2022/03/26 03:54:05;;;;;;;21.90;12.02;;;;;;;2.37;46.95;96397.63;5106064;28;20046;-69
2022/03/26 03:56:30;;;;;;;17.80;11.15;;;;;;;2.43;46.98;96399.84;5107225;28;20085;-68
2022/03/26 03:58:56;;;;;;;16.70;9.43;;;;;;;2.38;46.54;96397.53;5105546;28;20072;-70
2022/03/26 04:01:21;;;;;;;16.80;9.23;;;;;;;2.31;47.21;96412.09;5106486;28;20043;-70
2022/03/26 04:03:47;;;;;;;18.73;9.75;;;;;;;2.38;46.31;96413.41;5105720;28;20027;-69
2022/03/26 04:06:13;;;;;;;17.35;9.27;;;;;;;2.37;46.73;96413.50;5106398;28;20023;-70
2022/03/26 04:08:38;;;;;;;16.13;9.35;;;;;;;2.31;45.87;96415.59;5105970;28;20498;-69
2022/03/26 04:11:03;;;;;;;17.45;9.18;;;;;;;2.33;46.24;96420.78;5105666;28;20020;-69
2022/03/26 04:13:29;;;;;;;13.63;8.52;;;;;;;2.29;47.51;96425.44;5105376;28;20028;-70
2022/03/26 04:15:55;;;;;;;16.00;9.38;;;;;;;2.33;47.14;96426.09;5105215;28;20478;-70
2022/03/26 04:18:20;;;;;;;17.48;10.00;;;;;;;2.30;47.12;96429.81;5106514;28;20020;-70
2022/03/26 04:20:46;;;;;;;17.75;10.07;;;;;;;2.28;45.95;96433.47;5105183;28;20024;-71
2022/03/26 04:23:11;;;;;;;21.17;10.68;;;;;;;2.26;46.20;96430.09;5106318;28;20022;-71
2022/03/26 04:25:38;;;;;;;18.75;10.23;;;;;;;2.24;45.27;96438.16;5105745;28;20030;-70
2022/03/26 04:28:04;;;;;;;21.35;10.80;;;;;;;2.19;45.98;96432.31;5105256;28;20413;-70
2022/03/26 04:30:29;;;;;;;23.42;9.90;;;;;;;2.30;45.46;96442.19;5106620;28;20024;-71
2022/03/26 04:32:55;;;;;;;21.67;10.80;;;;;;;2.32;45.89;96429.69;5105053;28;20425;-71
2022/03/26 04:35:21;;;;;;;19.90;9.85;;;;;;;2.39;45.45;96435.41;5106449;28;20031;-70
2022/03/26 04:37:46;;;;;;;18.90;11.02;;;;;;;2.48;45.39;96440.13;5103637;28;20031;-70
2022/03/26 04:40:13;;;;;;;22.17;10.52;;;;;;;2.41;46.11;96446.75;5105353;28;20551;-70
2022/03/26 04:42:42;;;;;;;18.23;9.40;;;;;;;2.45;45.65;96449.09;5105348;28;20401;-70
2022/03/26 04:45:09;;;;;;;22.15;9.85;;;;;;;2.55;46.16;96446.69;5105380;27;20034;-69
2022/03/26 04:47:35;;;;;;;18.70;9.65;;;;;;;2.62;45.97;96447.16;5104323;28;20524;-70
2022/03/26 04:50:00;;;;;;;19.00;10.90;;;;;;;2.62;45.97;96451.59;5104766;28;20031;-70
2022/03/26 04:52:25;;;;;;;24.05;11.32;;;;;;;2.59;46.47;96450.00;5106373;28;20105;-71
2022/03/26 04:54:51;;;;;;;24.52;11.73;;;;;;;2.68;46.00;96451.19;5104536;28;20397;-69
2022/03/26 04:57:18;;;;;;;25.55;13.18;;;;;;;2.74;46.30;96450.75;5105852;28;20474;-68
2022/03/26 04:59:45;;;;;;;24.67;12.93;;;;;;;2.83;45.90;96455.47;5104983;28;20044;-68
2022/03/26 05:02:10;;;;;;;21.23;12.02;;;;;;;2.90;45.15;96455.03;5105026;28;20062;-70
2022/03/26 05:04:36;;;;;;;22.83;11.63;;;;;;;2.92;44.43;96453.97;5105144;28;20039;-71
2022/03/26 05:07:45;;;;;;;21.55;10.70;;;;;;;3.03;44.54;96452.41;5104733;28;20028;-71
2022/03/26 05:09:46;;;;;;;29.00;13.40;;;;;;;3.14;44.25;96459.63;5105618;28;20115;-71
2022/03/26 05:12:12;;;;;;;36.58;16.15;;;;;;;3.25;44.31;96449.13;5104866;28;20030;-69
2022/03/26 05:14:37;;;;;;;29.80;14.75;;;;;;;3.41;44.04;96448.06;5105585;28;20042;-69
2022/03/26 05:17:03;;;;;;;32.15;14.50;;;;;;;3.52;43.94;96460.56;5103179;28;20032;-70
2022/03/26 05:19:28;;;;;;;39.15;17.02;;;;;;;3.73;43.70;96458.22;5105185;28;20458;-70
2022/03/26 05:21:53;;;;;;;37.78;16.08;;;;;;;3.91;43.26;96455.19;5105183;28;20023;-70
2022/03/26 05:24:19;;;;;;;29.13;15.00;;;;;;;4.06;43.16;96459.38;5104735;28;20027;-69
2022/03/26 05:26:44;;;;;;;29.35;14.32;;;;;;;4.20;43.39;96458.41;5105610;28;20519;-70
2022/03/26 05:29:10;;;;;;;26.45;14.25;;;;;;;4.32;43.71;96464.63;5104231;28;20046;-70
2022/03/26 05:31:36;;;;;;;29.35;14.60;;;;;;;4.38;43.55;96463.34;5104311;28;20032;-72
2022/03/26 05:34:02;;;;;;;36.15;15.70;;;;;;;4.61;42.90;96467.91;5104126;28;20055;-70
2022/03/26 05:36:27;;;;;;;25.88;14.48;;;;;;;4.76;42.86;96465.88;5105247;28;20028;-71
2022/03/26 05:38:53;;;;;;;27.75;13.90;;;;;;;4.85;42.33;96461.72;5104812;28;20024;-72
2022/03/26 05:41:18;;;;;;;33.83;14.65;;;;;;;4.95;42.35;96468.00;5104709;28;20023;-70
2022/03/26 05:43:44;;;;;;;26.42;13.95;;;;;;;5.08;42.00;96470.59;5105291;28;20104;-70
2022/03/26 05:46:11;;;;;;;33.90;15.27;;;;;;;5.26;41.31;96475.47;5104195;28;20027;-75
2022/03/26 05:48:36;;;;;;;27.52;13.88;;;;;;;5.42;41.26;96477.78;5105461;28;20032;-71
2022/03/26 05:51:02;;;;;;;24.50;12.80;;;;;;;5.61;41.06;96474.53;5106761;28;20059;-69
2022/03/26 05:53:27;;;;;;;31.00;14.07;;;;;;;5.79;40.61;96477.56;5109181;28;20024;-70
2022/03/26 05:55:53;;;;;;;27.73;13.60;;;;;;;5.92;40.09;96473.94;5108772;28;20499;-70
2022/03/26 05:58:18;;;;;;;23.08;13.32;;;;;;;6.17;40.23;96480.00;5108585;28;20449;-70
2022/03/26 06:00:44;;;;;;;24.45;12.18;;;;;;;6.38;39.29;96477.44;5108724;28;20521;-70
2022/03/26 06:03:10;;;;;;;23.13;12.15;;;;;;;6.57;38.93;96478.56;5108055;28;20040;-69
2022/03/26 06:05:38;;;;;;;23.02;12.30;;;;;;;6.77;39.23;96476.91;5109038;28;20094;-70
2022/03/26 06:08:04;;;;;;;22.27;11.30;;;;;;;6.96;39.01;96487.88;5108484;28;20100;-70
2022/03/26 06:10:30;;;;;;;21.80;11.63;;;;;;;7.13;37.81;96481.13;5108909;28;20505;-70
2022/03/26 06:12:55;;;;;;;23.52;11.07;;;;;;;7.20;38.00;96479.66;5107958;28;20088;-70
2022/03/26 06:15:21;;;;;;;19.88;11.50;;;;;;;7.52;37.41;96477.84;5108898;28;20019;-72
2022/03/26 06:17:47;;;;;;;27.00;12.48;;;;;;;7.66;36.97;96476.66;5108286;28;20106;-70
2022/03/26 06:20:12;;;;;;;22.10;11.45;;;;;;;7.89;36.50;96482.69;5108044;28;20024;-69
2022/03/26 06:22:38;;;;;;;25.42;10.82;;;;;;;8.09;36.06;96484.59;5108777;28;20032;-69
2022/03/26 06:25:04;;;;;;;26.02;11.77;;;;;;;8.09;35.93;96485.44;5108042;28;20055;-70
2022/03/26 06:27:30;;;;;;;19.17;10.10;;;;;;;8.28;35.83;96484.66;5108819;28;20028;-69
2022/03/26 06:29:55;;;;;;;20.60;11.43;;;;;;;8.45;35.62;96484.94;5107602;27;20027;-69
2022/03/26 06:32:21;;;;;;;22.10;10.70;;;;;;;8.53;35.24;96490.47;5108930;27;20020;-69
2022/03/26 06:34:47;;;;;;;19.92;11.63;;;;;;;8.59;35.36;96486.41;5107671;28;20077;-69
2022/03/26 06:37:12;;;;;;;25.55;11.35;;;;;;;8.64;34.97;96494.03;5108120;28;20020;-68
2022/03/26 06:39:38;;;;;;;20.42;10.73;;;;;;;8.60;35.24;96495.28;5107691;28;20055;-70
2022/03/26 06:42:04;;;;;;;17.90;10.40;;;;;;;8.72;35.22;96491.50;5107961;27;20068;-70
2022/03/26 06:44:30;;;;;;;23.23;9.80;;;;;;;9.02;34.84;96502.22;5108284;28;20107;-70
2022/03/26 06:46:56;;;;;;;16.83;10.38;;;;;;;9.03;34.62;96504.75;5107399;28;20019;-71
2022/03/26 06:49:21;;;;;;;19.00;10.40;;;;;;;9.17;34.74;96504.47;5108116;28;20023;-69
2022/03/26 06:51:47;;;;;;;23.02;10.55;;;;;;;9.34;34.66;96500.22;5107047;28;20106;-69
2022/03/26 06:54:13;;;;;;;16.77;10.13;;;;;;;9.55;34.58;96501.88;5108172;28;20108;-69
2022/03/26 06:56:39;;;;;;;19.40;11.52;;;;;;;9.56;34.05;96495.56;5105878;28;20522;-69
2022/03/26 06:59:06;;;;;;;22.88;10.82;;;;;;;9.42;33.67;96499.50;5107850;28;20036;-71
2022/03/26 07:01:31;;;;;;;16.73;10.55;;;;;;;9.52;33.91;96503.03;5106573;28;20093;-70
2022/03/26 07:03:57;;;;;;;18.13;10.05;;;;;;;9.67;33.68;96506.09;5107450;28;20027;-70
2022/03/26 07:06:24;;;;;;;18.83;11.00;;;;;;;9.72;34.31;96508.34;5107968;28;20107;-69
2022/03/26 07:08:50;;;;;;;16.90;10.52;;;;;;;9.78;33.90;96510.44;5105554;28;20032;-70
2022/03/26 07:11:16;;;;;;;16.95;10.05;;;;;;;9.98;33.53;96502.31;5108000;28;20065;-69
2022/03/26 07:13:42;;;;;;;15.55;10.30;;;;;;;10.10;33.78;96506.53;5106759;28;20032;-69
2022/03/26 07:16:07;;;;;;;15.85;9.77;;;;;;;10.32;33.45;96511.63;5107456;28;20019;-70
2022/03/26 07:18:34;;;;;;;14.38;9.85;;;;;;;10.34;33.17;96513.19;5107424;27;20087;-69
2022/03/26 07:21:00;;;;;;;18.10;9.65;;;;;;;10.43;33.15;96510.59;5106859;28;20417;-69
2022/03/26 07:23:29;;;;;;;15.60;9.43;;;;;;;10.57;33.49;96511.97;5106331;28;20462;-69
2022/03/26 07:25:55;;;;;;;15.05;9.52;;;;;;;10.67;33.26;96518.13;5106918;27;20183;-70
2022/03/26 07:28:21;;;;;;;14.25;9.43;;;;;;;10.77;32.78;96517.22;5107652;28;20459;-71
2022/03/26 07:30:46;;;;;;;18.60;10.13;;;;;;;10.85;32.26;96517.31;5106309;28;20024;-69
2022/03/26 07:33:12;;;;;;;23.90;12.32;;;;;;;11.00;32.70;96518.47;5107350;28;20028;-70
2022/03/26 07:35:38;;;;;;;17.48;10.55;;;;;;;11.20;32.07;96510.25;5106501;28;20035;-72
2022/03/26 07:38:04;;;;;;;18.40;10.95;;;;;;;11.40;31.75;96504.69;5107130;28;20027;-69
2022/03/26 07:40:30;;;;;;;19.00;10.30;;;;;;;11.52;31.54;96505.28;5107059;28;20019;-69
2022/03/26 07:42:55;;;;;;;17.15;11.23;;;;;;;11.73;30.79;96512.16;5106316;28;20034;-70
2022/03/26 07:45:21;;;;;;;18.08;11.23;;;;;;;11.84;30.93;96514.59;5107452;27;20031;-70
2022/03/26 07:47:47;;;;;;;16.10;11.23;;;;;;;11.95;30.82;96515.31;5105968;28;20599;-71
2022/03/26 07:50:12;;;;;;;20.88;10.98;;;;;;;12.25;30.58;96507.78;5107278;28;20031;-70
2022/03/26 07:52:38;;;;;;;17.75;10.60;;;;;;;12.29;30.32;96506.44;5104797;28;20027;-70
2022/03/26 07:55:06;;;;;;;17.67;11.23;;;;;;;12.34;30.22;96508.66;5105457;28;20552;-70
2022/03/26 07:57:32;;;;;;;15.77;11.02;;;;;;;12.55;30.17;96513.63;5106476;28;20027;-70
2022/03/26 07:59:57;;;;;;;22.00;11.27;;;;;;;12.61;29.83;96518.34;5105952;28;20525;-69
2022/03/26 08:02:23;;;;;;;20.60;10.90;;;;;;;12.72;29.52;96505.56;5106772;28;20340;-70
2022/03/26 08:04:49;;;;;;;17.25;10.70;;;;;;;12.72;29.36;96498.34;5105795;28;20028;-70
2022/03/26 08:07:14;;;;;;;16.65;11.23;;;;;;;12.95;28.73;96500.41;5106953;27;20049;-70
2022/03/26 08:09:40;;;;;;;18.95;10.85;;;;;;;12.84;29.05;96500.72;5105353;28;20092;-69
2022/03/26 08:12:07;;;;;;;22.27;11.18;;;;;;;12.86;29.26;96501.41;5106527;28;20409;-70
2022/03/26 08:14:34;;;;;;;24.60;10.52;;;;;;;13.00;28.91;96502.63;5104970;28;20070;-70
2022/03/26 08:17:00;;;;;;;22.45;10.18;;;;;;;13.02;28.82;96499.75;5105807;28;20023;-69
2022/03/26 08:19:27;;;;;;;17.55;10.57;;;;;;;13.01;28.77;96509.69;5106332;28;20029;-69
2022/03/26 08:21:53;;;;;;;23.95;10.52;;;;;;;13.02;28.66;96502.44;5105338;28;20035;-69
2022/03/26 08:24:19;;;;;;;17.85;10.32;;;;;;;13.04;28.58;96503.13;5105283;28;20024;-69
2022/03/26 08:26:45;;;;;;;16.40;9.73;;;;;;;13.20;27.80;96497.75;5104957;28;20024;-69
2022/03/26 08:29:10;;;;;;;14.52;10.18;;;;;;;13.32;27.90;96495.56;5106632;28;20063;-70
2022/03/26 08:31:36;;;;;;;18.10;10.80;;;;;;;13.31;27.44;96491.22;5105340;28;20032;-69
2022/03/26 08:34:02;;;;;;;18.85;9.52;;;;;;;12.89;27.35;96493.00;5105842;28;20417;-69
2022/03/26 08:36:28;;;;;;;19.27;10.30;;;;;;;12.80;27.56;96488.63;5104194;28;20027;-69
2022/03/26 08:38:54;;;;;;;14.75;9.77;;;;;;;13.03;27.67;96490.66;5105273;28;20028;-70
2022/03/26 08:41:21;;;;;;;17.02;9.65;;;;;;;13.12;26.56;96487.00;5106078;28;20024;-69
2022/03/26 08:43:48;;;;;;;17.35;9.10;;;;;;;13.24;26.32;96492.88;5105157;28;20039;-71
2022/03/26 08:46:14;;;;;;;14.73;9.65;;;;;;;13.39;26.32;96476.03;5106261;28;20026;-72
2022/03/26 08:48:39;;;;;;;14.43;8.82;;;;;;;13.57;25.30;96476.72;5104992;28;20024;-70
2022/03/26 08:51:05;;;;;;;13.00;8.27;;;;;;;13.75;24.99;96472.16;5105115;28;20043;-70
2022/03/26 08:53:31;;;;;;;13.68;8.75;;;;;;;13.78;24.84;96471.81;5105313;28;20035;-71
2022/03/26 08:55:56;;;;;;;15.77;8.77;;;;;;;13.92;25.05;96471.09;5105185;28;20555;-69
2022/03/26 08:58:22;;;;;;;15.10;9.27;;;;;;;14.06;24.80;96464.16;5105827;28;20033;-69
2022/03/26 09:00:50;;;;;;;16.10;9.43;;;;;;;14.18;24.82;96461.94;5105196;28;20106;-71
2022/03/26 09:03:20;;;;;;;14.57;9.52;;;;;;;14.30;24.59;96475.84;5104351;28;20051;-72
2022/03/26 09:05:55;;;;;;;23.52;10.32;;;;;;;14.41;24.66;96463.84;5104701;28;20080;-70
2022/03/26 09:08:20;;;;;;;17.40;10.55;;;;;;;14.42;24.76;96468.22;5104477;28;20027;-69
2022/03/26 09:10:46;;;;;;;14.57;9.73;;;;;;;14.46;25.06;96460.63;5105165;28;20031;-71
2022/03/26 09:13:11;;;;;;;17.67;9.63;;;;;;;14.55;25.18;96453.31;5105261;28;20494;-69
2022/03/26 09:15:37;;;;;;;15.18;9.80;;;;;;;14.60;25.00;96459.03;5105625;28;20043;-69
2022/03/26 09:18:03;;;;;;;17.88;10.85;;;;;;;14.67;25.51;96454.59;5104867;28;20019;-69
2022/03/26 09:20:28;;;;;;;21.35;11.93;;;;;;;14.66;26.25;96455.63;5105893;28;20020;-70
2022/03/26 09:22:54;;;;;;;20.02;11.57;;;;;;;14.16;25.87;96453.16;5104785;28;20107;-69
2022/03/26 09:25:20;;;;;;;14.45;10.30;;;;;;;14.19;25.85;96447.41;5107228;28;20560;-69
2022/03/26 09:27:46;;;;;;;16.10;10.57;;;;;;;14.31;26.09;96438.94;5109032;28;20409;-69
2022/03/26 09:30:12;;;;;;;15.30;8.55;;;;;;;14.42;26.24;96443.09;5109446;28;20034;-69
2022/03/26 09:32:37;;;;;;;12.93;8.40;;;;;;;14.54;27.24;96432.75;5109413;28;20510;-69
2022/03/26 09:35:03;;;;;;;16.45;7.30;;;;;;;14.64;27.22;96433.34;5108979;28;20043;-69
2022/03/26 09:37:29;;;;;;;12.75;7.63;;;;;;;14.65;28.17;96428.81;5108251;28;20662;-69
2022/03/26 09:39:54;;;;;;;14.45;8.23;;;;;;;14.75;27.33;96423.19;5108924;28;20024;-69
2022/03/26 09:42:22;;;;;;;14.13;7.85;;;;;;;14.76;26.97;96420.28;5109572;28;20426;-69
2022/03/26 09:44:48;;;;;;;16.67;7.85;;;;;;;14.82;26.83;96421.44;5108704;28;20409;-69
2022/03/26 09:47:13;;;;;;;12.13;6.40;;;;;;;14.81;25.63;96417.94;5107678;28;20028;-70
2022/03/26 09:49:39;;;;;;;10.15;5.97;;;;;;;14.82;25.42;96416.06;5108652;28;20452;-70
2022/03/26 09:52:06;;;;;;;11.60;6.20;;;;;;;14.83;25.37;96406.94;5108887;28;20034;-70
2022/03/26 09:54:32;;;;;;;11.68;6.47;;;;;;;14.87;25.88;96416.38;5107530;28;20024;-69
2022/03/26 09:56:58;;;;;;;10.50;6.03;;;;;;;14.83;25.91;96415.88;5108620;28;20020;-69
2022/03/26 09:59:23;;;;;;;11.00;6.70;;;;;;;14.81;26.04;96411.69;5109197;28;20516;-70
2022/03/26 10:01:49;;;;;;;11.15;6.70;;;;;;;14.83;26.70;96409.66;5107841;28;20032;-70
2022/03/26 10:04:15;;;;;;;11.55;6.75;;;;;;;14.90;26.79;96398.94;5109402;28;20069;-70
2022/03/26 10:06:54;;;;;;;8.80;6.28;;;;;;;14.95;26.87;96401.94;5108115;28;20031;-70
2022/03/26 10:09:38;;;;;;;11.02;6.55;;;;;;;15.02;26.74;96391.28;5108246;28;20041;-69
2022/03/26 10:12:05;;;;;;;16.10;7.00;;;;;;;15.03;26.88;96392.94;5107888;28;20039;-70
2022/03/26 10:14:37;;;;;;;13.50;7.15;;;;;;;14.94;26.66;96394.88;5107587;28;20041;-69
2022/03/26 10:17:22;;;;;;;11.60;7.03;;;;;;;14.89;26.70;96384.63;5109097;27;20402;-69
2022/03/26 10:20:02;;;;;;;12.40;6.88;;;;;;;14.98;27.63;96381.84;5108090;28;20034;-68
2022/03/26 10:22:34;;;;;;;13.93;7.38;;;;;;;14.95;27.29;96367.69;5108231;28;20035;-69
2022/03/26 10:25:03;;;;;;;12.75;7.32;;;;;;;14.96;27.58;96363.09;5108643;28;20032;-69
2022/03/26 10:27:32;;;;;;;13.93;6.80;;;;;;;15.09;27.13;96359.78;5107301;28;20030;-69
2022/03/26 10:29:59;;;;;;;9.70;6.40;;;;;;;15.10;26.54;96361.47;5108716;28;20485;-69
2022/03/26 10:32:50;;;;;;;10.77;7.18;;;;;;;15.19;26.27;96354.97;5106266;28;20020;-69
2022/03/26 10:35:19;;;;;;;15.02;7.20;;;;;;;15.29;26.81;96351.16;5108268;28;20023;-69
2022/03/26 10:37:48;;;;;;;14.52;7.53;;;;;;;15.38;26.54;96352.75;5107014;28;20097;-69
2022/03/26 10:40:17;;;;;;;10.60;6.25;;;;;;;15.41;25.45;96352.38;5107453;28;20027;-70
2022/03/26 10:42:43;;;;;;;8.27;5.88;;;;;;;15.34;25.69;96348.75;5108581;28;20088;-70
2022/03/26 10:45:17;;;;;;;9.85;6.25;;;;;;;15.43;26.37;96339.53;5107311;28;20035;-69
2022/03/26 10:47:42;;;;;;;9.25;5.97;;;;;;;15.41;25.49;96336.16;5107900;28;20550;-69
2022/03/26 10:50:08;;;;;;;9.63;5.78;;;;;;;15.33;25.75;96334.41;5107371;28;20032;-68
2022/03/26 10:52:33;;;;;;;8.23;5.82;;;;;;;15.31;26.19;96325.63;5107552;28;20038;-70
2022/03/26 10:55:00;;;;;;;9.25;5.70;;;;;;;15.35;25.57;96328.81;5107675;28;20448;-69
2022/03/26 10:57:26;;;;;;;10.77;5.75;;;;;;;15.40;25.24;96326.38;5105961;28;20053;-69
2022/03/26 10:59:51;;;;;;;10.40;5.68;;;;;;;15.44;25.20;96319.56;5089992;28;20031;-70
2022/03/26 11:02:17;;;;;;;8.02;5.70;;;;;;;15.49;25.28;96324.44;5106797;28;20496;-70
2022/03/26 11:04:42;;;;;;;12.90;6.60;;;;;;;15.50;24.67;96323.41;5107725;28;20482;-69
2022/03/26 11:07:07;;;;;;;13.65;6.18;;;;;;;15.45;24.42;96315.88;5106733;28;20474;-69
2022/03/26 11:09:33;;;;;;;13.13;5.05;;;;;;;15.47;24.36;96310.28;5106114;28;20031;-70
2022/03/26 11:11:58;;;;;;;8.43;4.55;;;;;;;15.52;22.93;96315.13;5107332;28;20016;-70
2022/03/26 11:14:29;;;;;;;8.73;5.18;;;;;;;15.61;22.46;96310.44;5089036;28;20045;-69
2022/03/26 11:17:14;;;;;;;10.27;4.50;;;;;;;15.45;21.09;96312.31;5107960;28;20518;-70
2022/03/26 11:20:16;;;;;;;7.53;4.78;;;;;;;15.56;21.34;96297.47;5106431;28;20029;-70